Time;durP1;ratioP1;P1;durP2;ratioP2;P2;SDS_P1;SDS_P2;PMS_P1;PMS_P2;Temp;Humidity;BMP_temperature;BMP_pressure;BME280_temperature;BME280_humidity;BME280_pressure;Samples;Min_cycle;Max_cycle;Signal;HPM_P1;HPM_P2
2022/06/18 00:03:03;;;;;;;6.03;4.32;;;;;;;;;;10276285;28;20430;-83
2022/06/18 00:08:11;;;;;;;7.53;5.53;;;;;;;;;;10281696;28;20886;-83
2022/06/18 00:18:43;;;;;;;6.38;5.00;;;;;;;;;;10260219;28;20414;-89
2022/06/18 00:23:46;;;;;;;5.75;4.70;;;;;;;;;;10239153;28;21085;-87
2022/06/18 00:28:50;;;;;;;6.40;5.00;;;;;;;;;;10233246;28;20539;-88
2022/06/18 00:33:51;;;;;;;7.90;5.40;;;;;;;;;;10232548;28;20894;-88
2022/06/18 00:38:53;;;;;;;8.30;6.80;;;;;;;;;;10237498;28;20520;-87
2022/06/18 00:44:01;;;;;;;10.35;7.05;;;;;;;;;;10226620;28;20408;-89
2022/06/18 00:54:34;;;;;;;9.20;7.85;;;;;;;;;;10236554;28;20443;-88
2022/06/18 01:05:43;;;;;;;9.00;8.10;;;;;;;;;;10103988;28;20424;-88
2022/06/18 01:10:50;;;;;;;9.35;8.27;;;;;;;;;;10229798;28;20770;-88
2022/06/18 01:15:55;;;;;;;10.60;8.82;;;;;;;;;;10230162;28;20449;-89
2022/06/18 01:21:04;;;;;;;9.45;8.25;;;;;;;;;;10228869;28;20485;-88
2022/06/18 01:26:08;;;;;;;9.83;7.47;;;;;;;;;;10234708;28;20896;-89
2022/06/18 01:31:10;;;;;;;8.15;7.28;;;;;;;;;;10226009;28;20504;-87
2022/06/18 01:36:12;;;;;;;9.77;7.03;;;;;;;;;;10233769;28;20507;-87
2022/06/18 01:46:45;;;;;;;9.67;7.50;;;;;;;;;;10225475;29;20527;-88
2022/06/18 01:51:49;;;;;;;8.00;7.30;;;;;;;;;;10231492;28;20452;-89
2022/06/18 01:56:56;;;;;;;8.50;7.63;;;;;;;;;;10231848;28;20491;-87
2022/06/18 02:01:58;;;;;;;9.18;7.57;;;;;;;;;;10233460;28;20426;-89
2022/06/18 02:07:01;;;;;;;9.65;6.90;;;;;;;;;;10231107;28;20473;-88
2022/06/18 02:12:07;;;;;;;8.85;6.90;;;;;;;;;;10228965;28;20410;-88
2022/06/18 02:17:17;;;;;;;7.73;6.97;;;;;;;;;;10223297;28;20833;-88
2022/06/18 02:22:22;;;;;;;8.43;6.97;;;;;;;;;;10216713;28;20901;-88
2022/06/18 02:27:25;;;;;;;9.67;7.43;;;;;;;;;;10236813;28;20404;-88
2022/06/18 02:32:41;;;;;;;11.30;7.50;;;;;;;;;;10226392;28;20424;-88
2022/06/18 02:37:43;;;;;;;8.93;6.90;;;;;;;;;;10226696;28;20423;-88
2022/06/18 02:42:48;;;;;;;7.97;7.22;;;;;;;;;;10215418;28;20439;-89
2022/06/18 02:47:52;;;;;;;7.72;6.53;;;;;;;;;;10250336;28;20452;-88
2022/06/18 02:52:58;;;;;;;7.97;6.67;;;;;;;;;;10217214;28;20501;-87
2022/06/18 02:58:06;;;;;;;8.90;6.40;;;;;;;;;;10236306;28;20405;-88
2022/06/18 03:03:10;;;;;;;7.22;6.47;;;;;;;;;;10238661;28;20777;-88
2022/06/18 03:08:12;;;;;;;6.77;6.13;;;;;;;;;;10238703;28;20416;-88
2022/06/18 03:13:18;;;;;;;7.67;6.70;;;;;;;;;;10247042;28;20412;-88
2022/06/18 03:18:21;;;;;;;10.18;6.50;;;;;;;;;;10250465;28;20410;-88
2022/06/18 03:23:24;;;;;;;6.72;6.18;;;;;;;;;;10243255;28;20518;-87
2022/06/18 03:28:27;;;;;;;9.33;6.57;;;;;;;;;;10237970;28;20416;-87
2022/06/18 03:33:30;;;;;;;7.82;6.60;;;;;;;;;;10230345;28;20508;-88
2022/06/18 03:38:33;;;;;;;8.25;6.93;;;;;;;;;;10229734;28;20427;-86
2022/06/18 03:43:36;;;;;;;9.60;7.32;;;;;;;;;;10213439;28;20441;-88
2022/06/18 03:48:43;;;;;;;8.90;6.93;;;;;;;;;;10231086;28;20427;-88
2022/06/18 03:53:45;;;;;;;7.97;6.70;;;;;;;;;;10208612;28;20501;-87
2022/06/18 03:58:50;;;;;;;9.15;7.00;;;;;;;;;;10213782;28;20426;-88
2022/06/18 04:03:52;;;;;;;7.63;6.90;;;;;;;;;;10223666;28;20520;-88
2022/06/18 04:08:54;;;;;;;7.68;6.82;;;;;;;;;;10206614;28;20426;-87
2022/06/18 04:14:00;;;;;;;7.72;6.93;;;;;;;;;;10217186;28;20496;-88
2022/06/18 04:19:02;;;;;;;9.40;7.35;;;;;;;;;;10220276;28;20408;-88
2022/06/18 04:24:04;;;;;;;8.23;7.07;;;;;;;;;;10222713;28;20432;-87
2022/06/18 04:29:07;;;;;;;8.55;7.22;;;;;;;;;;10215291;28;20492;-86
2022/06/18 04:34:09;;;;;;;8.13;7.32;;;;;;;;;;10232970;28;20494;-87
2022/06/18 04:39:12;;;;;;;7.78;6.95;;;;;;;;;;10234752;28;20445;-87
2022/06/18 04:44:15;;;;;;;8.83;6.73;;;;;;;;;;10220101;28;20418;-86
2022/06/18 04:49:17;;;;;;;8.45;6.68;;;;;;;;;;10230512;28;20475;-87
2022/06/18 04:54:19;;;;;;;8.40;7.10;;;;;;;;;;10227480;28;20514;-86
2022/06/18 04:59:22;;;;;;;8.50;6.70;;;;;;;;;;10240672;28;20447;-87
2022/06/18 05:04:24;;;;;;;10.10;7.68;;;;;;;;;;10249296;28;20432;-87
2022/06/18 05:09:26;;;;;;;7.88;7.00;;;;;;;;;;10246145;28;20475;-88
2022/06/18 05:14:29;;;;;;;7.85;6.95;;;;;;;;;;10239981;28;20501;-86
2022/06/18 05:19:34;;;;;;;8.90;6.32;;;;;;;;;;10237037;28;20563;-87
2022/06/18 05:24:35;;;;;;;6.95;6.07;;;;;;;;;;10233982;28;20442;-87
2022/06/18 05:29:39;;;;;;;9.38;5.68;;;;;;;;;;10226620;28;20431;-88
2022/06/18 05:34:41;;;;;;;6.32;5.10;;;;;;;;;;10237956;28;20420;-86
2022/06/18 05:39:43;;;;;;;6.65;5.38;;;;;;;;;;10228593;28;20400;-87
2022/06/18 05:44:46;;;;;;;5.60;5.07;;;;;;;;;;10226998;28;20867;-88
2022/06/18 05:49:48;;;;;;;7.50;5.17;;;;;;;;;;10232639;28;20420;-88
2022/06/18 05:54:51;;;;;;;6.10;5.20;;;;;;;;;;10227227;28;20408;-88
2022/06/18 05:59:54;;;;;;;8.73;5.37;;;;;;;;;;10226057;28;20417;-88
2022/06/18 06:04:56;;;;;;;5.78;5.05;;;;;;;;;;10219821;28;20432;-87
2022/06/18 06:15:18;;;;;;;6.50;4.85;;;;;;;;;;10220952;28;20412;-85
2022/06/18 06:20:27;;;;;;;7.15;4.75;;;;;;;;;;10231810;28;20537;-88
2022/06/18 06:25:29;;;;;;;7.50;5.45;;;;;;;;;;10230842;28;20414;-88
2022/06/18 06:30:33;;;;;;;7.88;5.20;;;;;;;;;;10235230;28;20972;-88
2022/06/18 06:35:34;;;;;;;5.35;4.85;;;;;;;;;;10225361;28;20488;-88
2022/06/18 06:40:36;;;;;;;7.00;5.07;;;;;;;;;;10225611;28;20527;-86
2022/06/18 06:45:40;;;;;;;5.50;5.00;;;;;;;;;;10232884;28;21135;-88
2022/06/18 06:50:43;;;;;;;5.30;4.80;;;;;;;;;;10232601;28;20409;-87
2022/06/18 07:01:05;;;;;;;6.95;5.22;;;;;;;;;;10218624;28;20410;-88
2022/06/18 07:06:07;;;;;;;10.10;4.83;;;;;;;;;;10209546;28;20779;-87
2022/06/18 07:11:09;;;;;;;5.57;4.80;;;;;;;;;;10214339;28;20535;-85
2022/06/18 07:16:13;;;;;;;5.85;5.10;;;;;;;;;;10220755;28;20912;-76
2022/06/18 07:21:16;;;;;;;5.65;5.00;;;;;;;;;;10229620;28;20435;-85
2022/06/18 07:26:21;;;;;;;6.17;5.30;;;;;;;;;;10218643;28;20427;-77
2022/06/18 07:31:27;;;;;;;5.60;5.07;;;;;;;;;;10219490;28;20845;-87
2022/06/18 07:36:30;;;;;;;6.10;5.50;;;;;;;;;;10227560;28;20950;-87
2022/06/18 07:41:35;;;;;;;5.93;5.37;;;;;;;;;;10222608;28;20463;-77
2022/06/18 07:46:38;;;;;;;6.93;5.38;;;;;;;;;;10219848;28;20789;-85
2022/06/18 07:51:40;;;;;;;5.95;5.45;;;;;;;;;;10223438;28;20428;-85
2022/06/18 07:56:43;;;;;;;6.90;5.50;;;;;;;;;;10219371;28;20871;-86
2022/06/18 08:01:46;;;;;;;6.83;5.60;;;;;;;;;;10218363;28;20511;-86
2022/06/18 08:06:48;;;;;;;7.05;5.20;;;;;;;;;;10215288;28;20479;-87
2022/06/18 08:11:50;;;;;;;6.00;5.43;;;;;;;;;;10219883;28;20499;-86
2022/06/18 08:16:54;;;;;;;6.25;5.20;;;;;;;;;;10217510;28;20425;-86
2022/06/18 08:21:56;;;;;;;8.68;5.60;;;;;;;;;;10213299;28;20882;-86
2022/06/18 08:26:58;;;;;;;5.93;5.43;;;;;;;;;;10227196;28;20416;-85
2022/06/18 08:32:01;;;;;;;6.00;5.25;;;;;;;;;;10225882;28;21010;-86
2022/06/18 08:37:05;;;;;;;5.57;5.00;;;;;;;;;;10227992;28;21279;-84
2022/06/18 08:42:22;;;;;;;6.03;5.13;;;;;;;;;;10220981;28;20833;-84
2022/06/18 08:47:36;;;;;;;5.90;5.22;;;;;;;;;;10229641;28;20420;-86
2022/06/18 08:52:56;;;;;;;7.25;5.65;;;;;;;;;;10233856;28;20412;-85
2022/06/18 08:58:06;;;;;;;5.90;5.40;;;;;;;;;;10231613;28;20867;-85
2022/06/18 09:03:18;;;;;;;6.43;5.68;;;;;;;;;;10235484;28;20482;-85
2022/06/18 09:08:45;;;;;;;6.20;5.45;;;;;;;;;;10235897;28;20408;-86
2022/06/18 09:13:54;;;;;;;6.03;5.53;;;;;;;;;;10218726;28;20497;-86
2022/06/18 09:19:03;;;;;;;6.40;5.78;;;;;;;;;;10219044;28;20482;-85
2022/06/18 09:24:07;;;;;;;5.70;5.20;;;;;;;;;;10215639;28;20532;-84
2022/06/18 09:29:16;;;;;;;7.60;5.93;;;;;;;;;;10212047;28;20422;-85
2022/06/18 09:34:23;;;;;;;6.40;5.80;;;;;;;;;;10215848;28;20448;-85
2022/06/18 09:39:30;;;;;;;5.95;5.45;;;;;;;;;;10220001;28;20836;-85
2022/06/18 09:44:39;;;;;;;6.10;5.60;;;;;;;;;;10232394;28;20773;-85
2022/06/18 09:49:46;;;;;;;7.10;5.57;;;;;;;;;;10223824;29;20416;-84
2022/06/18 09:54:54;;;;;;;6.07;5.47;;;;;;;;;;10230887;28;20426;-84
2022/06/18 10:00:05;;;;;;;7.22;5.55;;;;;;;;;;10228362;28;20524;-84
2022/06/18 10:10:38;;;;;;;6.67;5.80;;;;;;;;;;10231213;28;20405;-76
2022/06/18 10:15:40;;;;;;;5.93;5.32;;;;;;;;;;10225363;28;20846;-86
2022/06/18 10:20:48;;;;;;;6.05;5.40;;;;;;;;;;10235629;28;20484;-86
2022/06/18 10:25:57;;;;;;;6.32;5.82;;;;;;;;;;10229321;28;20427;-73
2022/06/18 10:31:04;;;;;;;7.00;5.90;;;;;;;;;;10225959;28;20416;-86
2022/06/18 10:36:17;;;;;;;6.35;5.70;;;;;;;;;;10226132;28;20415;-77
2022/06/18 10:41:24;;;;;;;6.47;5.70;;;;;;;;;;10211821;28;20434;-86
2022/06/18 10:46:26;;;;;;;6.30;5.80;;;;;;;;;;10206930;28;20511;-85
2022/06/18 10:51:34;;;;;;;7.25;5.47;;;;;;;;;;10218987;28;20442;-86
2022/06/18 10:56:47;;;;;;;6.30;5.70;;;;;;;;;;10219076;28;20410;-87
2022/06/18 11:01:49;;;;;;;5.40;5.00;;;;;;;;;;10218978;28;20494;-87
2022/06/18 11:06:57;;;;;;;5.43;4.93;;;;;;;;;;10215073;28;20420;-88
2022/06/18 11:12:05;;;;;;;6.45;5.40;;;;;;;;;;10226471;28;20487;-86
2022/06/18 11:17:20;;;;;;;5.50;5.10;;;;;;;;;;10218540;28;20416;-87
2022/06/18 11:22:27;;;;;;;5.32;4.93;;;;;;;;;;10212584;28;20810;-88
2022/06/18 11:27:31;;;;;;;6.87;5.00;;;;;;;;;;10219437;28;20426;-87
2022/06/18 11:32:36;;;;;;;5.35;4.55;;;;;;;;;;10222178;28;20519;-86
2022/06/18 11:37:41;;;;;;;6.45;4.50;;;;;;;;;;10216881;28;20531;-87
2022/06/18 11:42:49;;;;;;;5.00;4.60;;;;;;;;;;10214956;29;20424;-86
2022/06/18 11:47:57;;;;;;;5.03;4.53;;;;;;;;;;10208297;28;20472;-88
2022/06/18 11:53:06;;;;;;;5.87;5.30;;;;;;;;;;10211632;28;20437;-87
2022/06/18 11:58:17;;;;;;;5.75;5.00;;;;;;;;;;10219094;28;21058;-86
2022/06/18 12:03:29;;;;;;;5.57;5.07;;;;;;;;;;10226361;28;20528;-87
2022/06/18 12:08:33;;;;;;;5.30;4.80;;;;;;;;;;10223612;28;20417;-87
2022/06/18 12:13:40;;;;;;;6.90;4.50;;;;;;;;;;10223949;28;20436;-88
2022/06/18 12:18:48;;;;;;;5.90;4.18;;;;;;;;;;10213295;28;20502;-87
2022/06/18 12:24:00;;;;;;;4.50;4.10;;;;;;;;;;10222428;28;20511;-88
2022/06/18 12:29:24;;;;;;;5.32;4.30;;;;;;;;;;10220887;28;20822;-86
2022/06/18 12:34:39;;;;;;;4.50;4.10;;;;;;;;;;10223676;28;20511;-88
2022/06/18 12:39:53;;;;;;;4.97;4.30;;;;;;;;;;10218136;28;20508;-88
2022/06/18 12:45:03;;;;;;;4.50;4.03;;;;;;;;;;10223125;28;20430;-87
2022/06/18 12:50:13;;;;;;;5.97;4.30;;;;;;;;;;10223481;28;21185;-86
2022/06/18 12:55:30;;;;;;;4.88;4.28;;;;;;;;;;10216566;28;20498;-87
2022/06/18 13:00:38;;;;;;;4.43;4.10;;;;;;;;;;10227508;28;20782;-88
2022/06/18 13:05:46;;;;;;;4.80;4.30;;;;;;;;;;10230323;28;20555;-87
2022/06/18 13:10:54;;;;;;;4.55;4.15;;;;;;;;;;10221607;28;20426;-87
2022/06/18 13:16:02;;;;;;;5.32;4.07;;;;;;;;;;10222392;28;20441;-87
2022/06/18 13:21:07;;;;;;;4.57;4.20;;;;;;;;;;10211730;28;20429;-88
2022/06/18 13:31:40;;;;;;;5.93;4.40;;;;;;;;;;10221394;28;20460;-87
2022/06/18 13:36:46;;;;;;;5.27;4.50;;;;;;;;;;10223261;28;20417;-86
2022/06/18 13:41:56;;;;;;;6.13;4.40;;;;;;;;;;10228135;28;20428;-87
2022/06/18 13:47:02;;;;;;;5.37;4.47;;;;;;;;;;10220097;28;20874;-86
2022/06/18 13:52:07;;;;;;;4.70;4.30;;;;;;;;;;10226052;28;21302;-86
2022/06/18 13:57:12;;;;;;;4.50;4.00;;;;;;;;;;10226077;28;20420;-88
2022/06/18 14:02:25;;;;;;;4.43;4.03;;;;;;;;;;10213433;28;20443;-87
2022/06/18 14:07:30;;;;;;;5.50;4.13;;;;;;;;;;10222323;28;20867;-88
2022/06/18 14:12:37;;;;;;;4.25;3.70;;;;;;;;;;10214373;28;20559;-86
2022/06/18 14:17:41;;;;;;;5.05;3.90;;;;;;;;;;10215967;28;20511;-86
2022/06/18 14:22:43;;;;;;;6.00;3.90;;;;;;;;;;10213209;28;20838;-86
2022/06/18 14:27:49;;;;;;;5.63;4.20;;;;;;;;;;10223398;28;20424;-84
2022/06/18 14:32:55;;;;;;;6.72;4.22;;;;;;;;;;10229247;28;20439;-84
2022/06/18 14:38:02;;;;;;;5.45;3.90;;;;;;;;;;10215307;28;20476;-83
2022/06/18 14:43:33;;;;;;;4.05;3.70;;;;;;;;;;10208999;28;20448;-88
2022/06/18 14:48:55;;;;;;;6.72;3.65;;;;;;;;;;10184640;28;20898;-87
2022/06/18 14:54:18;;;;;;;5.03;4.00;;;;;;;;;;10223921;28;20509;-87
2022/06/18 14:59:54;;;;;;;3.75;3.45;;;;;;;;;;10220870;28;20428;-88
2022/06/18 15:04:58;;;;;;;4.80;3.87;;;;;;;;;;10222573;28;20517;-89
2022/06/18 15:10:05;;;;;;;4.93;3.60;;;;;;;;;;10227357;28;20432;-88
2022/06/18 15:15:12;;;;;;;4.00;3.40;;;;;;;;;;10221016;28;20539;-87
2022/06/18 15:20:32;;;;;;;4.10;3.28;;;;;;;;;;10225616;28;22187;-88
2022/06/18 15:25:37;;;;;;;6.75;3.47;;;;;;;;;;10225985;28;20427;-88
2022/06/18 15:30:42;;;;;;;4.25;3.60;;;;;;;;;;10228410;28;20535;-87
2022/06/18 15:35:47;;;;;;;3.60;3.30;;;;;;;;;;10225500;28;20420;-86
2022/06/18 15:40:56;;;;;;;4.65;3.50;;;;;;;;;;10208966;28;20715;-88
2022/06/18 15:46:02;;;;;;;3.80;3.20;;;;;;;;;;10217252;28;20525;-86
2022/06/18 15:51:07;;;;;;;5.43;3.75;;;;;;;;;;10212707;28;20424;-86
2022/06/18 15:56:16;;;;;;;3.80;3.50;;;;;;;;;;10216196;29;20423;-87
2022/06/18 16:01:22;;;;;;;4.15;3.28;;;;;;;;;;10214859;28;20417;-86
2022/06/18 16:06:24;;;;;;;3.53;3.22;;;;;;;;;;10216143;28;20424;-87
2022/06/18 16:11:29;;;;;;;4.28;3.17;;;;;;;;;;10213733;28;20855;-86
2022/06/18 16:16:37;;;;;;;4.60;3.42;;;;;;;;;;10214487;28;20426;-86
2022/06/18 16:21:44;;;;;;;3.83;3.42;;;;;;;;;;10211480;28;20762;-87
2022/06/18 16:26:49;;;;;;;5.33;3.50;;;;;;;;;;10227261;28;20440;-88
2022/06/18 16:31:54;;;;;;;4.03;3.50;;;;;;;;;;10218396;28;20420;-88
2022/06/18 16:37:16;;;;;;;4.70;3.50;;;;;;;;;;10216158;28;20913;-88
2022/06/18 16:42:32;;;;;;;4.32;3.28;;;;;;;;;;10225357;28;20427;-88
2022/06/18 16:47:37;;;;;;;4.23;3.10;;;;;;;;;;10210657;28;20427;-88
2022/06/18 16:52:40;;;;;;;3.77;3.27;;;;;;;;;;10225863;28;20412;-87
2022/06/18 16:57:41;;;;;;;4.43;3.38;;;;;;;;;;10224721;28;20451;-88
2022/06/18 17:02:45;;;;;;;3.78;3.20;;;;;;;;;;10227243;28;20421;-88
2022/06/18 17:07:48;;;;;;;4.75;3.42;;;;;;;;;;10227860;28;20774;-88
2022/06/18 17:12:51;;;;;;;5.18;3.17;;;;;;;;;;10230819;28;20441;-87
2022/06/18 17:17:54;;;;;;;4.13;3.20;;;;;;;;;;10224938;28;20427;-87
2022/06/18 17:22:56;;;;;;;5.25;3.47;;;;;;;;;;10224585;28;20424;-85
2022/06/18 17:33:19;;;;;;;5.10;3.38;;;;;;;;;;10207978;28;20761;-79
2022/06/18 17:38:22;;;;;;;3.90;3.55;;;;;;;;;;10212272;28;20424;-87
2022/06/18 17:43:26;;;;;;;3.97;3.57;;;;;;;;;;10211739;28;20473;-86
2022/06/18 17:48:30;;;;;;;4.00;3.50;;;;;;;;;;10219478;28;20432;-88
2022/06/18 17:53:36;;;;;;;4.05;3.40;;;;;;;;;;10219171;28;20503;-86
2022/06/18 17:58:38;;;;;;;3.90;3.50;;;;;;;;;;10217096;28;20844;-87
2022/06/18 18:03:41;;;;;;;5.10;3.50;;;;;;;;;;10221444;28;20420;-87
2022/06/18 18:08:44;;;;;;;4.85;3.42;;;;;;;;;;10215575;28;20422;-88
2022/06/18 18:13:46;;;;;;;4.55;3.30;;;;;;;;;;10219389;28;20452;-87
2022/06/18 18:18:49;;;;;;;4.97;3.80;;;;;;;;;;10219216;28;20806;-86
2022/06/18 18:23:54;;;;;;;4.40;4.00;;;;;;;;;;10213166;28;20532;-87
2022/06/18 18:29:00;;;;;;;7.23;3.77;;;;;;;;;;10222302;28;20409;-88
2022/06/18 18:34:07;;;;;;;4.35;3.55;;;;;;;;;;10232250;28;20523;-89
2022/06/18 18:39:14;;;;;;;9.48;5.60;;;;;;;;;;10216859;28;20688;-90
2022/06/18 18:49:57;;;;;;;6.75;4.07;;;;;;;;;;10224947;28;20408;-89
2022/06/18 18:55:03;;;;;;;4.38;3.95;;;;;;;;;;10218949;28;20433;-90
2022/06/18 19:00:10;;;;;;;4.67;3.90;;;;;;;;;;10214883;28;20415;-89
2022/06/18 19:05:16;;;;;;;5.30;3.80;;;;;;;;;;10220236;28;20491;-89
2022/06/18 19:10:21;;;;;;;9.05;4.30;;;;;;;;;;10229523;28;20593;-91
2022/06/18 19:15:26;;;;;;;6.83;4.13;;;;;;;;;;10220469;28;20606;-92
2022/06/18 19:20:32;;;;;;;5.70;4.47;;;;;;;;;;10220092;28;20706;-90
2022/06/18 19:25:36;;;;;;;6.10;4.20;;;;;;;;;;10219662;28;20937;-91
2022/06/18 19:30:38;;;;;;;6.22;4.30;;;;;;;;;;10227415;28;20412;-90
2022/06/18 19:35:45;;;;;;;7.60;4.60;;;;;;;;;;10227057;28;20506;-92
2022/06/18 19:40:50;;;;;;;7.37;4.67;;;;;;;;;;10229455;28;20412;-90
2022/06/18 19:45:56;;;;;;;7.40;4.80;;;;;;;;;;10230386;28;20511;-92
2022/06/18 19:51:05;;;;;;;6.23;4.70;;;;;;;;;;10227067;28;20510;-89
2022/06/18 19:56:10;;;;;;;7.40;4.80;;;;;;;;;;10218654;28;20429;-91
2022/06/18 20:01:14;;;;;;;6.25;4.70;;;;;;;;;;10224679;28;20477;-90
2022/06/18 20:06:24;;;;;;;8.33;4.40;;;;;;;;;;10226449;28;20432;-92
2022/06/18 20:11:27;;;;;;;7.22;4.20;;;;;;;;;;10224713;28;20420;-91
2022/06/18 20:16:29;;;;;;;5.63;4.28;;;;;;;;;;10226774;28;20444;-90
2022/06/18 20:21:33;;;;;;;6.20;4.85;;;;;;;;;;10234617;28;20451;-91
2022/06/18 20:26:35;;;;;;;5.97;4.37;;;;;;;;;;10239642;28;20422;-92
2022/06/18 20:31:38;;;;;;;5.77;4.47;;;;;;;;;;10228749;28;20424;-94
2022/06/18 20:36:41;;;;;;;7.50;4.60;;;;;;;;;;10238463;28;21059;-94
2022/06/18 20:41:45;;;;;;;6.17;5.43;;;;;;;;;;10238549;28;20444;-93
2022/06/18 20:46:47;;;;;;;6.80;5.88;;;;;;;;;;10237764;28;20420;-94
2022/06/18 20:51:52;;;;;;;6.63;5.20;;;;;;;;;;10230428;28;20827;-93
2022/06/18 20:57:09;;;;;;;7.53;5.80;;;;;;;;;;10224085;28;20869;-92
2022/06/18 21:02:14;;;;;;;8.60;6.63;;;;;;;;;;10233119;28;20425;-93
2022/06/18 21:07:17;;;;;;;8.73;7.83;;;;;;;;;;10231650;28;20434;-93
2022/06/18 21:12:20;;;;;;;8.55;7.18;;;;;;;;;;10229418;28;20501;-93
2022/06/18 21:17:22;;;;;;;8.20;7.20;;;;;;;;;;10226691;28;20439;-93
2022/06/18 21:22:27;;;;;;;9.55;6.32;;;;;;;;;;10228626;29;20492;-92
2022/06/18 21:27:29;;;;;;;8.80;5.97;;;;;;;;;;10223017;28;20423;-91
2022/06/18 21:37:52;;;;;;;8.87;7.33;;;;;;;;;;10227881;28;20412;-91
2022/06/18 21:42:55;;;;;;;8.90;8.00;;;;;;;;;;10233043;28;20453;-90
2022/06/18 21:47:57;;;;;;;9.60;8.10;;;;;;;;;;10226880;28;20424;-91
2022/06/18 21:53:02;;;;;;;10.00;7.07;;;;;;;;;;10222325;28;21028;-91
2022/06/18 21:58:08;;;;;;;9.90;7.57;;;;;;;;;;10213496;28;20430;-91
2022/06/18 22:03:13;;;;;;;9.43;7.30;;;;;;;;;;10208499;28;20428;-90
2022/06/18 22:08:16;;;;;;;8.40;6.80;;;;;;;;;;10215858;28;20991;-90
2022/06/18 22:18:38;;;;;;;9.30;6.75;;;;;;;;;;10222597;28;20522;-91
2022/06/18 22:23:41;;;;;;;7.97;6.70;;;;;;;;;;10226827;28;20536;-89
2022/06/18 22:28:45;;;;;;;10.47;6.50;;;;;;;;;;10220666;28;20424;-88
2022/06/18 22:33:47;;;;;;;8.52;6.97;;;;;;;;;;10225630;28;20427;-90
2022/06/18 22:38:51;;;;;;;9.50;6.97;;;;;;;;;;10226704;28;20506;-89
2022/06/18 22:43:55;;;;;;;8.55;7.45;;;;;;;;;;10221487;28;20922;-90
2022/06/18 22:48:57;;;;;;;10.48;6.88;;;;;;;;;;10226378;28;20528;-90
2022/06/18 22:54:00;;;;;;;9.00;7.13;;;;;;;;;;10222374;28;21036;-89
2022/06/18 22:59:03;;;;;;;8.75;6.97;;;;;;;;;;10228227;28;20507;-89
2022/06/18 23:04:05;;;;;;;9.52;7.03;;;;;;;;;;10233201;28;20951;-89
2022/06/18 23:09:13;;;;;;;8.80;7.33;;;;;;;;;;10228550;28;20515;-90
2022/06/18 23:14:17;;;;;;;8.88;7.97;;;;;;;;;;10223594;28;20580;-89
2022/06/18 23:19:21;;;;;;;10.27;8.00;;;;;;;;;;10226845;28;20453;-91
2022/06/18 23:24:24;;;;;;;11.07;7.50;;;;;;;;;;10222374;28;20452;-89
2022/06/18 23:29:27;;;;;;;10.10;7.97;;;;;;;;;;10223791;28;20515;-90
2022/06/18 23:34:34;;;;;;;9.73;7.20;;;;;;;;;;10224563;28;20422;-89
2022/06/18 23:39:37;;;;;;;9.90;7.72;;;;;;;;;;10230774;28;20435;-89
2022/06/18 23:44:43;;;;;;;8.90;7.50;;;;;;;;;;10223646;28;20553;-91
2022/06/18 23:49:45;;;;;;;8.70;7.10;;;;;;;;;;10225248;28;20572;-90
2022/06/18 23:54:49;;;;;;;9.00;7.53;;;;;;;;;;10221861;28;20419;-90
2022/06/18 23:59:53;;;;;;;8.07;7.20;;;;;;;;;;10223902;28;20519;-90
